KFFA/FFA METAR and TAF weather

Enter ICAO airport designator
Station Type Date Time Source
KFFA METAR 2021/01/16 03:55 UTC NOAA

KFFA 160355Z AUTO 00000KT 10SM BKN048 BKN075 BKN120 11/07 A2966 RMK AO2 T01070073 402601020


Station Type Date Time Source
KFFA Decoded METAR 2021/01/16 03:55 UTC NOAA

Kill Devil Hills, First Flight Airport, NC, United States (KFFA) 36-01N 075-40W
Jan 15, 2021 - 10:55 PM EST / 2021.01.16 0355 UTC
Wind: Calm:0
Visibility: 10 mile(s):0
Sky conditions: mostly cloudy
Temperature: 51.3 F (10.7 C)
Dew Point: 45.1 F (7.3 C)
Relative Humidity: 79%
Pressure (altimeter): 29.66 in. Hg (1004 hPa)
ob: KFFA 160355Z AUTO 00000KT 10SM BKN048 BKN075 BKN120 11/07 A2966 RMK AO2 T01070073 402601020
cycle: 4

Station Type Date Time Source
KFFA TAF UTC NOAA

Error!

Example: see airport list